Time;durP1;ratioP1;P1;durP2;ratioP2;P2;SDS_P1;SDS_P2;PMS_P1;PMS_P2;Temp;Humidity;BMP_temperature;BMP_pressure;BME280_temperature;BME280_humidity;BME280_pressure;Samples;Min_cycle;Max_cycle;Signal;HPM_P1;HPM_P2
2021/04/24 00:00:18;;;;;;;4.32;2.15;;;;;;;17.39;33.79;100038.19;4958242;28;20038;-69
2021/04/24 00:02:44;;;;;;;3.83;1.85;;;;;;;17.29;33.73;100031.91;4958384;28;20504;-69
2021/04/24 00:05:32;;;;;;;5.60;2.42;;;;;;;17.33;33.76;100040.31;4958705;28;20042;-69
2021/04/24 00:07:59;;;;;;;5.45;2.30;;;;;;;17.25;33.66;100036.47;4957884;28;20106;-70
2021/04/24 00:10:26;;;;;;;3.38;1.90;;;;;;;17.26;34.00;100035.34;4956332;28;20447;-70
2021/04/24 00:12:52;;;;;;;4.28;1.80;;;;;;;17.23;33.93;100041.50;4957594;28;20030;-70
2021/04/24 00:15:18;;;;;;;3.17;1.90;;;;;;;17.22;34.08;100033.56;4957372;28;20059;-70
2021/04/24 00:17:44;;;;;;;2.40;2.08;;;;;;;17.19;34.05;100028.75;4958283;28;20098;-69
2021/04/24 00:20:13;;;;;;;2.72;2.05;;;;;;;17.15;34.08;100032.16;4958093;28;20031;-70
2021/04/24 00:22:39;;;;;;;3.28;2.10;;;;;;;17.10;34.20;100031.53;4958253;28;20035;-70
2021/04/24 00:25:06;;;;;;;2.55;2.13;;;;;;;16.96;33.86;100016.03;4961341;28;20027;-70
2021/04/24 00:27:31;;;;;;;2.75;1.80;;;;;;;16.91;34.15;100007.91;4957130;28;20085;-70
2021/04/24 00:29:57;;;;;;;6.40;2.20;;;;;;;17.02;34.44;100032.38;4957594;28;20043;-70
2021/04/24 00:32:22;;;;;;;2.97;2.00;;;;;;;16.99;34.18;100031.88;4957747;28;20117;-69
2021/04/24 00:34:48;;;;;;;3.00;2.15;;;;;;;16.96;34.43;100029.00;4957166;28;20035;-71
2021/04/24 00:37:13;;;;;;;5.05;2.00;;;;;;;16.80;34.28;100010.25;4959285;28;20038;-70
2021/04/24 00:39:39;;;;;;;5.55;2.10;;;;;;;16.91;34.40;100029.16;4957842;28;20039;-69
2021/04/24 00:42:05;;;;;;;2.30;1.80;;;;;;;16.87;34.48;100023.50;4957371;28;20528;-70
2021/04/24 00:44:30;;;;;;;4.00;2.00;;;;;;;16.81;34.44;100011.06;4957818;28;20027;-70
2021/04/24 00:46:56;;;;;;;2.70;2.05;;;;;;;16.82;34.54;100026.41;4969630;28;20118;-69
2021/04/24 00:49:21;;;;;;;3.90;2.17;;;;;;;16.74;34.63;100008.00;4957627;28;20058;-70
2021/04/24 00:51:46;;;;;;;3.35;2.00;;;;;;;16.78;34.50;100011.72;4957352;28;20114;-70
2021/04/24 00:54:12;;;;;;;3.85;1.95;;;;;;;16.75;34.54;100009.59;4962830;28;20023;-69
2021/04/24 00:56:38;;;;;;;3.08;1.67;;;;;;;16.71;34.72;100003.16;4957043;28;20038;-70
2021/04/24 00:59:03;;;;;;;2.88;2.00;;;;;;;16.70;34.67;100007.03;4957653;28;20079;-71
2021/04/24 01:01:29;;;;;;;3.47;2.28;;;;;;;16.66;34.62;99999.44;4956785;28;20035;-69
2021/04/24 01:03:55;;;;;;;3.13;1.98;;;;;;;16.63;34.62;99997.38;4957519;28;20059;-69
2021/04/24 01:06:21;;;;;;;4.35;2.25;;;;;;;16.59;34.74;99990.88;4957721;28;20027;-69
2021/04/24 01:08:46;;;;;;;3.45;2.03;;;;;;;16.44;34.61;99973.00;4957361;28;20154;-71
2021/04/24 01:11:12;;;;;;;3.40;1.88;;;;;;;16.57;34.62;99997.88;4957394;28;20047;-69
2021/04/24 01:13:37;;;;;;;4.30;2.30;;;;;;;16.34;34.77;99956.81;4957882;28;20105;-69
2021/04/24 01:16:04;;;;;;;2.42;1.80;;;;;;;16.50;34.54;100001.09;4951611;28;20098;-70
2021/04/24 01:18:29;;;;;;;3.22;1.90;;;;;;;16.48;34.67;99992.41;4958151;28;20032;-70
2021/04/24 01:20:56;;;;;;;2.97;1.88;;;;;;;16.43;34.55;99987.06;4957866;28;20035;-69
2021/04/24 01:23:22;;;;;;;2.30;1.80;;;;;;;16.37;34.97;99975.41;4957842;28;20071;-70
2021/04/24 01:25:48;;;;;;;3.83;1.98;;;;;;;16.42;34.75;99989.00;4958077;28;20058;-71
2021/04/24 01:28:14;;;;;;;4.28;1.80;;;;;;;16.36;34.76;99980.13;4957550;28;20051;-69
2021/04/24 01:30:42;;;;;;;3.67;2.20;;;;;;;16.38;34.91;99985.28;4956817;28;20133;-70
2021/04/24 01:33:09;;;;;;;2.75;1.92;;;;;;;16.36;34.76;99988.38;4957966;28;20101;-69
2021/04/24 01:35:36;;;;;;;5.43;2.13;;;;;;;16.33;34.75;99985.47;4958283;28;20027;-70
2021/04/24 01:38:03;;;;;;;2.25;1.70;;;;;;;16.20;34.74;99971.56;4957539;28;20035;-70
2021/04/24 01:40:28;;;;;;;3.30;1.88;;;;;;;16.29;34.86;99984.50;4957181;28;20492;-69
2021/04/24 01:42:54;;;;;;;2.35;1.92;;;;;;;16.26;34.74;99977.72;4957316;28;20560;-70
2021/04/24 01:45:23;;;;;;;2.10;1.90;;;;;;;16.24;34.88;99990.97;4959556;28;20035;-70
2021/04/24 01:47:48;;;;;;;3.45;2.25;;;;;;;16.19;34.72;99986.47;4961732;28;20074;-71
2021/04/24 01:50:20;;;;;;;5.00;2.05;;;;;;;16.19;34.88;99980.97;4957335;28;20095;-69
2021/04/24 01:52:47;;;;;;;2.90;2.10;;;;;;;16.16;34.90;99981.63;4961180;28;20038;-70
2021/04/24 01:55:17;;;;;;;3.88;2.53;;;;;;;16.16;34.71;99980.78;4957579;28;20484;-70
2021/04/24 01:57:44;;;;;;;3.00;2.10;;;;;;;16.14;34.82;99988.59;4956768;28;20358;-70
2021/04/24 02:00:13;;;;;;;2.88;2.00;;;;;;;16.13;34.87;99992.47;4957768;28;20027;-69
2021/04/24 02:02:39;;;;;;;3.33;1.92;;;;;;;16.10;34.88;99990.34;4957365;28;20404;-70
2021/04/24 02:05:10;;;;;;;2.20;2.00;;;;;;;16.07;34.94;99991.03;4957523;28;20444;-70
2021/04/24 02:07:36;;;;;;;2.17;1.80;;;;;;;16.03;34.88;99988.13;4957132;28;20067;-70
2021/04/24 02:10:08;;;;;;;2.25;2.00;;;;;;;15.94;35.11;99971.63;4956493;28;20088;-70
2021/04/24 02:12:33;;;;;;;2.58;2.00;;;;;;;15.97;35.40;99981.16;4956733;28;20404;-70
2021/04/24 02:14:59;;;;;;;2.72;1.90;;;;;;;15.93;35.43;99982.94;4952066;28;20396;-69
2021/04/24 02:17:26;;;;;;;3.97;1.83;;;;;;;15.87;35.75;99987.81;4957394;28;20035;-69
2021/04/24 02:19:53;;;;;;;3.22;1.80;;;;;;;15.81;35.94;99989.88;4957110;28;20094;-70
2021/04/24 02:22:21;;;;;;;4.15;2.00;;;;;;;15.75;35.75;99988.41;4957298;28;20085;-70
2021/04/24 02:24:56;;;;;;;4.10;1.85;;;;;;;15.71;35.68;99980.00;4959772;28;20032;-71
2021/04/24 02:27:22;;;;;;;;;;;;;;;15.65;35.66;99975.00;4957164;28;20074;-70
2021/04/24 02:29:49;;;;;;;2.30;1.80;;;;;;;15.61;35.57;99969.34;4956462;28;20059;-70
2021/04/24 02:32:16;;;;;;;2.42;1.80;;;;;;;15.63;35.26;99972.56;4957343;29;20567;-69
2021/04/24 02:34:44;;;;;;;2.78;2.00;;;;;;;15.63;35.29;99966.25;4957464;28;20060;-70
2021/04/24 02:37:11;;;;;;;2.05;1.77;;;;;;;15.51;35.14;99953.16;4959425;28;20035;-69
2021/04/24 02:39:39;;;;;;;1.98;1.60;;;;;;;15.62;35.23;99962.72;4960831;28;20118;-70
2021/04/24 02:42:07;;;;;;;2.20;2.00;;;;;;;15.61;35.26;99974.84;4958940;28;20031;-70
2021/04/24 02:44:33;;;;;;;3.53;2.05;;;;;;;15.60;35.34;99966.91;4960927;28;20444;-70
2021/04/24 02:46:59;;;;;;;2.40;2.10;;;;;;;15.59;35.10;99966.09;4962091;28;20805;-69
2021/04/24 02:49:25;;;;;;;4.50;2.10;;;;;;;15.56;35.04;99953.03;4952508;28;20063;-69
2021/04/24 02:51:55;;;;;;;5.50;2.05;;;;;;;15.55;34.74;99949.44;4960088;28;20508;-70
2021/04/24 02:54:22;;;;;;;1.95;1.70;;;;;;;15.53;34.42;99951.72;4962370;28;20031;-69
2021/04/24 02:56:48;;;;;;;2.78;1.90;;;;;;;15.51;34.62;99947.66;4959719;28;20031;-70
2021/04/24 02:59:14;;;;;;;2.40;2.03;;;;;;;15.43;34.75;99935.56;4960423;28;20443;-69
2021/04/24 03:01:40;;;;;;;5.18;1.90;;;;;;;15.47;34.57;99941.22;4959959;28;20067;-69
2021/04/24 03:04:06;;;;;;;2.50;2.00;;;;;;;15.46;34.62;99942.34;4958837;29;20592;-70
2021/04/24 03:06:32;;;;;;;2.83;1.88;;;;;;;15.37;34.48;99926.66;4959687;28;20611;-71
2021/04/24 03:08:57;;;;;;;2.65;2.20;;;;;;;15.42;34.89;99937.47;4960004;28;20035;-69
2021/04/24 03:11:22;;;;;;;2.85;2.00;;;;;;;15.40;34.81;99937.03;4959529;28;20027;-70
2021/04/24 03:13:48;;;;;;;2.50;1.90;;;;;;;15.38;35.09;99938.44;4960084;28;20038;-70
2021/04/24 03:16:13;;;;;;;4.45;2.10;;;;;;;15.36;35.13;99940.72;4949319;28;20110;-69
2021/04/24 03:18:40;;;;;;;2.65;1.90;;;;;;;15.34;35.33;99942.97;4953715;28;20027;-69
2021/04/24 03:21:05;;;;;;;2.10;1.88;;;;;;;15.32;35.28;99942.50;4959200;28;20400;-68
2021/04/24 03:23:31;;;;;;;2.47;1.77;;;;;;;15.28;35.51;99939.56;4959337;28;20385;-69
2021/04/24 03:25:56;;;;;;;2.47;2.05;;;;;;;15.25;35.66;99938.28;4958787;28;20027;-71
2021/04/24 03:28:22;;;;;;;2.35;1.92;;;;;;;15.20;35.73;99932.97;4958642;28;20165;-69
2021/04/24 03:30:47;;;;;;;2.28;1.98;;;;;;;15.20;35.84;99940.38;4959857;28;20957;-70
2021/04/24 03:33:12;;;;;;;4.38;2.05;;;;;;;15.11;35.75;99935.69;4957785;28;20019;-70
2021/04/24 03:35:38;;;;;;;2.30;1.90;;;;;;;15.13;35.94;99949.06;4961390;28;20109;-70
2021/04/24 03:38:03;;;;;;;2.78;2.00;;;;;;;14.95;36.06;99920.78;4959091;28;20046;-71
2021/04/24 03:40:29;;;;;;;4.82;1.90;;;;;;;14.95;36.08;99931.78;4959253;28;20034;-71
2021/04/24 03:42:54;;;;;;;3.60;1.80;;;;;;;15.04;36.57;99957.31;4958862;28;20481;-71
2021/04/24 03:45:21;;;;;;;4.00;2.05;;;;;;;14.92;36.22;99943.38;4961574;28;20027;-71
2021/04/24 03:47:53;;;;;;;4.25;2.13;;;;;;;15.03;36.34;99963.94;4963215;28;20054;-71
2021/04/24 03:50:19;;;;;;;3.35;2.33;;;;;;;15.02;36.60;99965.06;4959090;28;20031;-72
2021/04/24 03:52:46;;;;;;;3.05;2.17;;;;;;;15.00;36.62;99956.31;4963480;28;20034;-70
2021/04/24 03:55:12;;;;;;;2.72;2.10;;;;;;;14.81;36.79;99931.09;4961545;28;20058;-71
2021/04/24 03:57:38;;;;;;;3.65;1.98;;;;;;;14.89;36.91;99942.09;4958894;28;20067;-70
2021/04/24 04:00:09;;;;;;;3.40;2.05;;;;;;;14.81;37.13;99942.88;4958919;28;20023;-72
2021/04/24 04:02:45;;;;;;;2.22;2.03;;;;;;;14.92;37.07;99959.84;4950919;28;20499;-71
2021/04/24 04:05:11;;;;;;;;;;;;;;;14.84;37.04;99960.63;4955446;28;20034;-71
2021/04/24 04:07:36;;;;;;;3.10;2.30;;;;;;;14.80;37.24;99960.47;4958836;28;19914;-71
2021/04/24 04:10:02;;;;;;;3.13;2.47;;;;;;;14.67;37.41;99944.94;4958979;28;20027;-71
2021/04/24 04:12:28;;;;;;;2.88;2.20;;;;;;;14.80;37.55;99968.69;4958302;28;20082;-71
2021/04/24 04:14:53;;;;;;;4.78;2.50;;;;;;;14.78;37.72;99966.28;4954064;28;20035;-71
2021/04/24 04:17:18;;;;;;;4.20;2.13;;;;;;;14.77;37.77;99977.56;4950664;28;20027;-72
2021/04/24 04:19:44;;;;;;;2.60;2.40;;;;;;;14.73;38.01;99982.91;4959073;28;20050;-71
2021/04/24 04:22:09;;;;;;;3.83;2.35;;;;;;;14.72;38.27;99978.53;4958918;28;20023;-70
2021/04/24 04:24:34;;;;;;;4.45;2.40;;;;;;;14.70;38.49;99980.78;4962310;28;20496;-72
2021/04/24 04:27:00;;;;;;;2.83;2.20;;;;;;;14.68;38.51;99983.00;4958139;28;20066;-70
2021/04/24 04:29:25;;;;;;;2.50;2.30;;;;;;;14.67;38.75;99980.59;4958110;28;20047;-71
2021/04/24 04:31:51;;;;;;;3.25;2.30;;;;;;;14.66;38.82;99981.69;4956972;28;20023;-71
2021/04/24 04:34:16;;;;;;;2.88;2.55;;;;;;;14.64;39.04;99976.53;4958208;28;21571;-72
2021/04/24 04:36:41;;;;;;;2.40;2.20;;;;;;;14.62;39.16;99985.09;4960378;28;20170;-71
2021/04/24 04:39:07;;;;;;;2.50;2.30;;;;;;;14.57;39.37;99968.75;4958720;28;20042;-71
2021/04/24 04:41:32;;;;;;;3.20;2.47;;;;;;;14.57;39.21;99965.19;4957815;28;20025;-72
2021/04/24 04:43:58;;;;;;;2.83;2.38;;;;;;;14.55;39.56;99968.25;4958081;28;20045;-70
2021/04/24 04:46:23;;;;;;;2.97;2.67;;;;;;;14.54;39.71;99969.38;4964380;28;20038;-70
2021/04/24 04:48:48;;;;;;;5.20;2.80;;;;;;;14.53;39.71;99966.94;4957655;28;20368;-72
2021/04/24 04:51:14;;;;;;;4.55;2.58;;;;;;;14.52;39.67;99968.06;4957227;28;20076;-70
2021/04/24 04:53:40;;;;;;;2.88;2.40;;;;;;;14.50;39.92;99956.63;4964189;28;20523;-71
2021/04/24 04:56:05;;;;;;;5.47;2.72;;;;;;;14.49;39.98;99964.03;4958024;28;20489;-71
2021/04/24 04:58:30;;;;;;;5.70;2.50;;;;;;;14.47;40.25;99964.34;4957525;28;20027;-71
2021/04/24 05:00:56;;;;;;;5.18;2.40;;;;;;;14.46;40.01;99965.47;4957717;28;20027;-69
2021/04/24 05:03:21;;;;;;;3.60;2.17;;;;;;;14.13;40.08;99923.84;4958021;28;20038;-71
2021/04/24 05:05:48;;;;;;;4.30;2.80;;;;;;;14.42;40.38;99963.66;4958591;28;20031;-72
2021/04/24 05:08:14;;;;;;;3.15;2.58;;;;;;;14.40;40.40;99957.69;4958028;28;20158;-71
2021/04/24 05:10:39;;;;;;;3.67;2.38;;;;;;;14.30;40.53;99947.81;4957162;28;20055;-71
2021/04/24 05:13:04;;;;;;;3.00;2.40;;;;;;;13.99;40.67;99912.97;4957269;28;20019;-71
2021/04/24 05:15:30;;;;;;;4.15;2.42;;;;;;;14.36;40.42;99962.97;4948633;28;20102;-70
2021/04/24 05:17:55;;;;;;;3.70;2.50;;;;;;;14.35;40.45;99966.84;4955053;28;20034;-70
2021/04/24 05:20:20;;;;;;;3.90;2.60;;;;;;;14.36;40.45;99962.97;4957885;28;20440;-71
2021/04/24 05:22:47;;;;;;;2.92;2.28;;;;;;;14.31;40.52;99961.19;4957034;28;20025;-71
2021/04/24 05:25:14;;;;;;;3.63;2.50;;;;;;;14.35;40.47;99974.28;4961459;28;20414;-70
2021/04/24 05:27:44;;;;;;;2.67;2.40;;;;;;;14.21;40.34;99953.25;4956717;28;20034;-70
2021/04/24 05:30:11;;;;;;;3.35;2.85;;;;;;;14.33;40.46;99958.94;4956742;29;20031;-71
2021/04/24 05:32:37;;;;;;;3.88;2.47;;;;;;;14.34;40.53;99957.00;4957711;28;20035;-70
2021/04/24 05:35:03;;;;;;;3.35;2.60;;;;;;;14.38;40.63;99965.44;4958130;28;20114;-71
2021/04/24 05:37:28;;;;;;;3.35;2.50;;;;;;;14.37;40.63;99970.09;4959185;28;20383;-71
2021/04/24 05:39:56;;;;;;;3.58;2.40;;;;;;;14.41;40.92;99967.53;4957915;28;20023;-70
2021/04/24 05:42:21;;;;;;;4.20;2.70;;;;;;;14.40;40.71;99977.69;4957569;28;20034;-70
2021/04/24 05:44:46;;;;;;;4.97;2.50;;;;;;;14.44;40.83;99975.13;4957502;28;20031;-71
2021/04/24 05:47:12;;;;;;;5.15;2.92;;;;;;;14.45;41.14;99974.81;4962997;28;20030;-70
2021/04/24 05:49:37;;;;;;;4.68;3.00;;;;;;;14.47;41.23;99980.81;4956206;29;20031;-70
2021/04/24 05:52:05;;;;;;;3.58;3.08;;;;;;;14.49;41.32;99980.47;4957822;28;20023;-71
2021/04/24 05:54:31;;;;;;;3.38;2.80;;;;;;;14.32;41.28;99967.50;4964504;28;20079;-71
2021/04/24 05:56:56;;;;;;;6.43;2.90;;;;;;;14.51;41.62;99997.44;4956456;28;20043;-70
2021/04/24 05:59:22;;;;;;;5.35;2.88;;;;;;;14.43;41.56;99982.53;4957390;28;20019;-71
2021/04/24 06:01:47;;;;;;;3.58;2.80;;;;;;;14.55;41.73;99986.66;4955750;28;20373;-71
2021/04/24 06:04:13;;;;;;;4.28;2.92;;;;;;;14.50;42.02;99970.34;4957807;28;20027;-71
2021/04/24 06:06:39;;;;;;;6.30;3.08;;;;;;;14.54;42.09;99974.03;4957041;28;20110;-70
2021/04/24 06:09:05;;;;;;;6.50;3.10;;;;;;;14.59;42.26;99985.69;4957562;28;20078;-70
2021/04/24 06:11:31;;;;;;;4.88;3.22;;;;;;;14.59;42.42;99979.38;4958081;28;20484;-70
2021/04/24 06:13:56;;;;;;;6.18;3.05;;;;;;;14.63;42.69;99991.38;4960497;28;20034;-70
2021/04/24 06:16:22;;;;;;;5.35;3.45;;;;;;;14.64;42.58;99982.81;4948978;28;20034;-70
2021/04/24 06:18:47;;;;;;;4.60;3.10;;;;;;;14.63;42.93;99989.41;4959919;28;20059;-71
2021/04/24 06:21:13;;;;;;;6.00;2.92;;;;;;;14.52;42.98;99971.63;4960527;28;20110;-70
2021/04/24 06:23:38;;;;;;;4.28;3.38;;;;;;;14.48;43.11;99974.19;4961317;28;20515;-70
2021/04/24 06:26:03;;;;;;;4.97;3.03;;;;;;;14.64;43.05;100003.97;4962670;28;20053;-71
2021/04/24 06:28:29;;;;;;;3.47;2.88;;;;;;;14.64;43.10;100002.00;4958422;28;20101;-70
2021/04/24 06:30:54;;;;;;;4.47;2.97;;;;;;;14.64;43.32;99996.53;4959699;28;20034;-72
2021/04/24 06:33:19;;;;;;;4.63;3.20;;;;;;;14.66;43.40;99999.00;4960473;28;20103;-70
2021/04/24 06:35:45;;;;;;;4.35;3.10;;;;;;;14.57;43.36;99979.72;4962326;28;20114;-70
2021/04/24 06:38:10;;;;;;;4.43;2.90;;;;;;;14.66;43.33;99995.41;4960471;28;20027;-70
2021/04/24 06:40:36;;;;;;;4.60;2.97;;;;;;;14.67;43.64;99995.13;4960206;28;20078;-70
2021/04/24 06:43:01;;;;;;;5.20;2.97;;;;;;;14.71;43.66;100006.28;4960077;28;20035;-71
2021/04/24 06:45:27;;;;;;;4.20;3.10;;;;;;;14.74;43.68;100002.91;4963451;28;20395;-70
2021/04/24 06:47:52;;;;;;;4.68;3.05;;;;;;;14.78;43.79;100007.44;4970081;28;20053;-70
2021/04/24 06:50:19;;;;;;;6.03;2.90;;;;;;;14.68;43.74;99976.72;4960161;28;20027;-71
2021/04/24 06:52:45;;;;;;;3.97;2.85;;;;;;;14.77;43.71;99972.88;4964664;28;20439;-70
2021/04/24 06:55:13;;;;;;;4.95;3.17;;;;;;;14.92;43.77;99996.34;4962493;28;20452;-70
2021/04/24 06:57:38;;;;;;;3.40;2.70;;;;;;;14.97;43.82;99989.09;4959315;28;20035;-71
2021/04/24 07:00:06;;;;;;;5.25;3.10;;;;;;;15.03;43.68;99987.84;4959978;28;20030;-70
2021/04/24 07:02:32;;;;;;;3.75;3.17;;;;;;;15.06;43.72;99981.69;4959779;28;20038;-72
2021/04/24 07:04:57;;;;;;;3.45;3.03;;;;;;;15.11;43.74;99982.34;4959600;28;20032;-70
2021/04/24 07:07:22;;;;;;;5.55;3.00;;;;;;;15.18;43.70;99975.59;4958846;28;20151;-71
2021/04/24 07:09:48;;;;;;;6.32;3.22;;;;;;;15.22;43.65;99977.38;4958958;28;20133;-72
2021/04/24 07:12:13;;;;;;;4.97;2.80;;;;;;;15.27;43.59;99969.00;4958563;28;20031;-71
2021/04/24 07:14:39;;;;;;;4.63;2.80;;;;;;;15.35;43.40;99972.06;4957310;28;20032;-71
2021/04/24 07:17:04;;;;;;;4.47;2.95;;;;;;;15.41;43.19;99973.53;4958624;28;20548;-71
2021/04/24 07:19:30;;;;;;;10.18;4.88;;;;;;;15.49;43.05;99969.19;4958630;28;20520;-70
2021/04/24 07:21:55;;;;;;;4.85;2.88;;;;;;;15.56;42.90;99966.75;4957750;28;20050;-70
2021/04/24 07:24:20;;;;;;;3.30;2.90;;;;;;;15.57;42.64;99973.88;4960098;28;20027;-70
2021/04/24 07:26:46;;;;;;;4.43;2.72;;;;;;;15.69;42.55;99968.53;4958991;28;20030;-71
2021/04/24 07:29:11;;;;;;;2.33;2.13;;;;;;;15.80;42.26;99973.72;4959431;28;20083;-70
2021/04/24 07:31:37;;;;;;;3.63;2.80;;;;;;;15.88;42.32;99967.44;4959805;28;20034;-71
2021/04/24 07:34:03;;;;;;;7.03;3.38;;;;;;;15.98;41.88;99971.78;4958846;28;20015;-71
2021/04/24 07:36:30;;;;;;;4.43;2.33;;;;;;;16.05;41.79;99974.84;4962021;28;20028;-70
2021/04/24 07:38:57;;;;;;;5.75;2.20;;;;;;;16.03;41.25;99955.91;4959789;28;20035;-71
2021/04/24 07:41:23;;;;;;;5.72;2.30;;;;;;;16.20;40.93;99968.03;4959460;28;20027;-70
2021/04/24 07:43:49;;;;;;;3.15;2.00;;;;;;;16.28;40.71;99980.16;4950617;28;20484;-71
2021/04/24 07:46:15;;;;;;;3.20;2.65;;;;;;;16.35;40.38;99977.69;4961372;28;20681;-71
2021/04/24 07:48:41;;;;;;;4.13;2.30;;;;;;;16.42;40.16;99974.44;4958540;29;20031;-71
2021/04/24 07:51:06;;;;;;;8.68;6.78;;;;;;;16.48;39.98;99973.13;4959709;28;20016;-71
2021/04/24 07:53:32;;;;;;;4.07;2.20;;;;;;;16.54;39.79;99977.31;4960594;28;20114;-71
2021/04/24 07:55:57;;;;;;;3.47;2.10;;;;;;;16.64;39.44;99973.38;4958048;28;20035;-71
2021/04/24 07:58:22;;;;;;;2.67;2.00;;;;;;;16.72;39.40;99963.50;4957409;28;20043;-71
2021/04/24 08:00:48;;;;;;;5.22;1.63;;;;;;;16.80;39.18;99962.66;4959195;28;20023;-71
2021/04/24 08:03:13;;;;;;;3.85;2.15;;;;;;;16.87;39.13;99973.94;4959576;28;20031;-71
2021/04/24 08:05:39;;;;;;;5.45;2.17;;;;;;;16.94;39.31;99974.25;4959346;28;20078;-71
2021/04/24 08:08:04;;;;;;;3.45;1.75;;;;;;;17.02;39.14;99985.56;4959547;28;20027;-71
2021/04/24 08:10:30;;;;;;;3.35;2.20;;;;;;;17.09;38.74;99964.63;4959006;28;20023;-71
2021/04/24 08:13:03;;;;;;;2.40;1.80;;;;;;;17.17;38.70;99968.44;4959131;28;20026;-71
2021/04/24 08:15:29;;;;;;;4.28;1.80;;;;;;;17.23;38.50;99971.81;4957383;28;20496;-71
2021/04/24 08:17:55;;;;;;;5.78;2.10;;;;;;;17.29;38.21;99963.03;4957933;28;20027;-71
2021/04/24 08:20:21;;;;;;;3.75;1.60;;;;;;;17.36;38.26;99953.41;4958831;28;20042;-71
2021/04/24 08:22:46;;;;;;;2.22;1.88;;;;;;;17.34;37.65;99962.03;4958848;28;20031;-72
2021/04/24 08:25:12;;;;;;;5.60;2.03;;;;;;;17.48;37.59;99963.72;4963735;28;20028;-72
2021/04/24 08:27:38;;;;;;;3.20;1.88;;;;;;;17.54;37.44;99959.59;4958510;29;20034;-72
2021/04/24 08:30:08;;;;;;;3.00;1.73;;;;;;;17.56;37.46;99957.31;4970304;28;20031;-71
2021/04/24 08:32:33;;;;;;;2.65;1.92;;;;;;;17.66;37.18;99958.84;4951747;28;20035;-72
2021/04/24 08:34:59;;;;;;;3.95;2.00;;;;;;;17.71;37.21;99961.44;4957826;28;20047;-71
2021/04/24 08:37:24;;;;;;;4.55;1.70;;;;;;;17.67;36.95;99947.50;4961422;28;20031;-72
2021/04/24 08:39:50;;;;;;;3.72;1.98;;;;;;;17.82;36.97;99957.09;4958483;28;20024;-71
2021/04/24 08:42:15;;;;;;;4.57;2.00;;;;;;;17.86;36.45;99949.78;4958218;28;20388;-72
2021/04/24 08:44:43;;;;;;;5.05;1.70;;;;;;;17.92;36.34;99951.16;4957985;28;20507;-71
2021/04/24 08:47:08;;;;;;;3.80;1.92;;;;;;;17.98;36.32;99949.03;4958172;28;20033;-71
2021/04/24 08:49:34;;;;;;;7.53;4.82;;;;;;;18.04;36.07;99952.38;4958204;28;20058;-72
2021/04/24 08:52:03;;;;;;;4.40;2.10;;;;;;;18.11;35.77;99957.34;4958040;28;20027;-72
2021/04/24 08:54:28;;;;;;;3.55;1.92;;;;;;;18.16;35.62;99952.41;4970089;28;20034;-72
2021/04/24 08:56:54;;;;;;;3.97;1.92;;;;;;;18.18;35.40;99947.38;4957262;28;20031;-72
2021/04/24 08:59:19;;;;;;;5.00;1.83;;;;;;;18.26;35.52;99953.94;4956544;28;20027;-72
2021/04/24 09:01:45;;;;;;;2.90;1.67;;;;;;;18.29;34.93;99956.00;4958280;28;20070;-72
2021/04/24 09:04:10;;;;;;;2.95;1.58;;;;;;;18.34;34.86;99957.75;4956965;28;20103;-72
2021/04/24 09:06:36;;;;;;;3.35;1.73;;;;;;;18.36;34.07;99959.00;4958393;28;20408;-73
2021/04/24 09:09:05;;;;;;;3.80;1.88;;;;;;;18.42;33.80;99959.59;4958213;28;20023;-72
2021/04/24 09:11:42;;;;;;;3.53;1.80;;;;;;;18.48;33.81;99954.66;4958155;28;20031;-71
2021/04/24 09:14:11;;;;;;;3.30;1.80;;;;;;;18.51;33.88;99948.47;4957058;28;20024;-70
2021/04/24 09:16:37;;;;;;;3.13;1.48;;;;;;;18.56;33.45;99951.00;4957958;28;20046;-69
2021/04/24 09:19:34;;;;;;;2.88;1.60;;;;;;;18.63;33.46;99962.28;4958176;28;20110;-70
2021/04/24 09:22:19;;;;;;;4.82;1.75;;;;;;;18.65;33.45;99959.97;4958433;28;20081;-69
2021/04/24 09:24:51;;;;;;;3.65;1.45;;;;;;;18.64;33.35;99954.78;4964969;28;20039;-70
2021/04/24 09:27:18;;;;;;;5.55;1.75;;;;;;;18.66;33.64;99950.56;4958027;28;20034;-70
2021/04/24 09:29:43;;;;;;;6.25;1.90;;;;;;;18.74;33.33;99964.59;4957529;28;20111;-70
2021/04/24 09:32:17;;;;;;;6.05;1.63;;;;;;;18.82;33.00;99974.72;4958248;28;20027;-70
2021/04/24 09:34:47;;;;;;;7.43;2.13;;;;;;;18.85;32.99;99965.72;4957956;28;20035;-69
2021/04/24 09:37:19;;;;;;;6.40;1.80;;;;;;;18.81;33.15;99964.81;4963224;28;20087;-69
2021/04/24 09:39:51;;;;;;;5.95;1.90;;;;;;;18.88;33.44;99978.84;4957799;28;20027;-69
2021/04/24 09:42:35;;;;;;;4.05;1.80;;;;;;;18.91;33.39;99961.59;4957579;28;20087;-71
2021/04/24 09:45:03;;;;;;;6.22;1.80;;;;;;;18.91;33.52;99955.25;4957725;28;20054;-70
2021/04/24 09:47:46;;;;;;;6.97;1.70;;;;;;;18.95;33.91;99954.25;4972004;28;20027;-69
2021/04/24 09:50:15;;;;;;;8.82;1.80;;;;;;;18.98;33.66;99941.69;4961779;28;20492;-70
2021/04/24 09:52:41;;;;;;;3.72;1.50;;;;;;;19.02;33.72;99957.25;4965498;28;20026;-70
2021/04/24 09:55:13;;;;;;;8.35;1.70;;;;;;;19.08;33.61;99957.03;4962113;28;20404;-70
2021/04/24 09:57:38;;;;;;;9.68;2.55;;;;;;;19.13;33.59;99968.63;4960775;28;20082;-69
2021/04/24 10:00:14;;;;;;;5.15;1.48;;;;;;;19.12;33.55;99955.16;4961597;28;20126;-72
2021/04/24 10:02:43;;;;;;;7.50;1.75;;;;;;;19.23;33.80;99972.88;4961585;28;20502;-70
2021/04/24 10:05:16;;;;;;;4.97;1.73;;;;;;;19.27;33.82;99954.44;4961697;28;20031;-70
2021/04/24 10:07:46;;;;;;;4.13;1.73;;;;;;;19.28;33.90;99964.34;4961386;28;20061;-70
2021/04/24 10:10:30;;;;;;;6.65;1.58;;;;;;;19.35;34.25;99952.72;4961561;28;20031;-70
2021/04/24 10:13:01;;;;;;;3.97;1.80;;;;;;;19.36;34.33;99968.16;4960962;28;20031;-70
2021/04/24 10:15:56;;;;;;;2.95;1.80;;;;;;;19.47;33.91;99976.75;4961137;28;20059;-70
2021/04/24 10:18:21;;;;;;;5.00;2.20;;;;;;;19.44;34.32;99974.69;4956001;28;20039;-70
2021/04/24 10:20:47;;;;;;;7.80;1.90;;;;;;;19.50;33.97;99970.53;4961156;28;20042;-71
2021/04/24 10:23:14;;;;;;;3.67;1.58;;;;;;;19.58;34.07;99985.38;4961308;28;20035;-70
2021/04/24 10:25:40;;;;;;;7.05;1.95;;;;;;;19.48;33.57;99961.78;4961202;28;20063;-70
2021/04/24 10:28:06;;;;;;;3.80;1.98;;;;;;;19.67;33.42;99975.75;4960596;28;20047;-70
2021/04/24 10:30:31;;;;;;;9.80;2.22;;;;;;;19.70;33.66;99981.75;4959608;28;20043;-71
2021/04/24 10:32:57;;;;;;;6.53;1.90;;;;;;;19.67;33.88;99986.03;4961171;28;20035;-69
2021/04/24 10:35:26;;;;;;;6.07;1.85;;;;;;;19.82;33.82;99976.19;4961365;28;20027;-70
2021/04/24 10:37:53;;;;;;;2.28;1.50;;;;;;;19.92;33.98;99986.78;4965909;28;20090;-71
2021/04/24 10:40:20;;;;;;;7.03;1.67;;;;;;;20.00;34.49;99978.69;4964899;28;20101;-70
2021/04/24 10:42:55;;;;;;;6.15;2.20;;;;;;;20.08;34.11;99988.81;4959728;28;20035;-71
2021/04/24 10:45:35;;;;;;;2.83;1.40;;;;;;;20.16;33.68;99987.84;4960091;28;20039;-70
2021/04/24 10:48:03;;;;;;;4.15;1.92;;;;;;;20.20;33.17;99979.63;4960355;28;20043;-70
2021/04/24 10:50:41;;;;;;;4.95;2.45;;;;;;;20.24;33.17;99970.25;4960721;28;20031;-70
2021/04/24 10:53:29;;;;;;;5.90;2.40;;;;;;;20.31;32.75;99977.94;4960149;28;20039;-71
2021/04/24 10:55:57;;;;;;;5.47;1.67;;;;;;;20.19;32.43;99956.66;4957521;28;20062;-70
2021/04/24 10:58:24;;;;;;;3.95;1.85;;;;;;;20.36;32.11;99969.38;4959623;28;20504;-70
2021/04/24 11:00:53;;;;;;;2.85;1.50;;;;;;;20.32;32.46;99951.06;4960339;28;20027;-70
2021/04/24 11:03:40;;;;;;;3.55;1.48;;;;;;;20.50;31.54;99963.38;4960210;28;20464;-71
2021/04/24 11:06:11;;;;;;;2.72;1.30;;;;;;;20.52;30.99;99952.78;4958794;28;20066;-70
2021/04/24 11:08:37;;;;;;;4.75;1.50;;;;;;;20.56;30.96;99948.13;4952644;29;20039;-70
2021/04/24 11:11:10;;;;;;;5.13;1.77;;;;;;;20.60;30.46;99945.47;4959246;28;20066;-71
2021/04/24 11:13:39;;;;;;;2.88;1.45;;;;;;;20.62;30.47;99947.84;4960267;28;20029;-70
2021/04/24 11:16:09;;;;;;;4.03;1.60;;;;;;;20.65;30.26;99938.84;4958247;28;20033;-70
2021/04/24 11:18:36;;;;;;;3.45;1.52;;;;;;;20.68;30.21;99936.16;4960373;28;20027;-70
2021/04/24 11:21:06;;;;;;;3.50;1.45;;;;;;;20.78;29.68;99926.53;4960017;28;20027;-71
2021/04/24 11:23:46;;;;;;;2.33;1.50;;;;;;;20.89;29.86;99919.28;4959723;28;20052;-71
2021/04/24 11:26:17;;;;;;;2.42;1.60;;;;;;;20.93;29.35;99922.13;4959338;28;20522;-71
2021/04/24 11:29:07;;;;;;;1.85;1.30;;;;;;;21.01;29.06;99925.84;4960479;28;20119;-70
2021/04/24 11:32:17;;;;;;;5.32;1.23;;;;;;;21.07;28.67;99922.44;4956906;28;20186;-70
2021/04/24 11:34:49;;;;;;;4.05;1.60;;;;;;;21.06;28.90;99922.81;4918760;29;20480;-70